Time;durP1;ratioP1;P1;durP2;ratioP2;P2;SDS_P1;SDS_P2;PMS_P1;PMS_P2;Temp;Humidity;BMP_temperature;BMP_pressure;BME280_temperature;BME280_humidity;BME280_pressure;Samples;Min_cycle;Max_cycle;Signal;HPM_P1;HPM_P2
2022/07/28 00:00:43;;;;;;;;;;;;;;;22.91;45.43;101453.56;4921220;29;4105;-72
2022/07/28 00:03:10;;;;;;;;;;;;;;;22.91;45.41;101470.88;4922526;29;5612;-73
2022/07/28 00:05:36;;;;;;;;;;;;;;;22.91;45.69;101452.81;4922007;29;5346;-74
2022/07/28 00:08:03;;;;;;;;;;;;;;;22.91;45.68;101456.44;4919176;29;4466;-74
2022/07/28 00:10:31;;;;;;;;;;;;;;;22.91;45.73;101462.22;4921426;29;4210;-74
2022/07/28 00:12:58;;;;;;;;;;;;;;;22.91;45.79;101459.34;4922474;29;4264;-74
2022/07/28 00:15:25;;;;;;;;;;;;;;;22.90;45.92;101469.38;4919566;29;4214;-74
2022/07/28 00:17:51;;;;;;;;;;;;;;;22.91;46.05;101465.09;4921105;29;4244;-74
2022/07/28 00:20:18;;;;;;;;;;;;;;;22.90;45.63;101469.38;4920342;29;4236;-74
2022/07/28 00:22:44;;;;;;;;;;;;;;;22.90;46.05;101466.50;4923157;29;4395;-74
2022/07/28 00:25:10;;;;;;;;;;;;;;;22.90;45.75;101457.81;4919041;29;4331;-74
2022/07/28 00:27:37;;;;;;;;;;;;;;;22.90;45.87;101463.59;4915882;29;4299;-75
2022/07/28 00:30:04;;;;;;;;;;;;;;;22.91;45.96;101462.22;4918677;29;4594;-73
2022/07/28 00:32:31;;;;;;;;;;;;;;;22.90;46.20;101463.59;4919812;29;4180;-74
2022/07/28 00:34:57;;;;;;;;;;;;;;;22.91;46.11;101462.22;4922376;29;6184;-74
2022/07/28 00:37:23;;;;;;;;;;;;;;;22.90;46.15;101469.38;4920034;29;5608;-74
2022/07/28 00:39:51;;;;;;;;;;;;;;;22.90;46.13;101466.50;4919101;29;4775;-74
2022/07/28 00:42:18;;;;;;;;;;;;;;;22.90;46.15;101463.59;4917428;29;6126;-74
2022/07/28 00:44:44;;;;;;;;;;;;;;;22.89;46.30;101467.91;4918243;29;4276;-74
2022/07/28 00:47:11;;;;;;;;;;;;;;;22.90;46.29;101462.84;4914767;29;5702;-75
2022/07/28 00:49:37;;;;;;;;;;;;;;;22.90;46.21;101462.84;4920708;29;5907;-75
2022/07/28 00:52:04;;;;;;;;;;;;;;;22.89;46.50;101462.13;4917955;29;4628;-74
2022/07/28 00:54:31;;;;;;;;;;;;;;;22.89;46.44;101467.91;4920710;29;4515;-74
2022/07/28 00:56:57;;;;;;;;;;;;;;;22.89;46.57;101467.91;4917309;29;4218;-74
2022/07/28 00:59:24;;;;;;;;;;;;;;;22.89;46.51;101470.78;4919899;29;4887;-74
2022/07/28 01:01:50;;;;;;;;;;;;;;;22.88;46.42;101466.38;4915891;29;4670;-74
2022/07/28 01:04:18;;;;;;;;;;;;;;;22.88;46.72;101472.16;4912027;29;4584;-74
2022/07/28 01:06:53;;;;;;;;;;;;;;;22.85;46.84;101467.72;4921251;29;4643;-74
2022/07/28 01:09:38;;;;;;;;;;;;;;;22.84;46.74;101474.91;4918281;29;3997;-74
2022/07/28 01:12:23;;;;;;;;;;;;;;;22.85;46.90;101485.03;4918065;29;5406;-73
2022/07/28 01:15:02;;;;;;;;;;;;;;;22.85;46.74;101476.38;4919443;29;4225;-74
2022/07/28 01:17:31;;;;;;;;;;;;;;;22.84;46.50;101474.91;4906855;29;4182;-74
2022/07/28 01:20:08;;;;;;;;;;;;;;;22.87;46.46;101476.47;4889827;29;4241;-74
2022/07/28 01:22:37;;;;;;;;;;;;;;;22.87;46.85;101479.34;4907199;29;4327;-74
2022/07/28 01:25:06;;;;;;;;;;;;;;;22.87;47.23;101473.59;4907126;29;4228;-74
2022/07/28 01:27:41;;;;;;;;;;;;;;;22.87;47.15;101476.47;4918656;29;4174;-74
2022/07/28 01:30:26;;;;;;;;;;;;;;;22.88;46.99;101480.09;4914640;29;5291;-75
2022/07/28 01:33:14;;;;;;;;;;;;;;;22.88;47.30;101482.97;4916620;29;4478;-73
2022/07/28 01:35:41;;;;;;;;;;;;;;;22.89;47.37;101473.69;4899626;29;4245;-74
2022/07/28 01:38:07;;;;;;;;;;;;;;;22.88;47.39;101480.84;4917240;29;5291;-73
2022/07/28 01:40:34;;;;;;;;;;;;;;;22.88;47.39;101474.31;4921024;29;4297;-74
2022/07/28 01:43:01;;;;;;;;;;;;;;;22.87;47.36;101479.34;4918509;29;4188;-72
2022/07/28 01:45:28;;;;;;;;;;;;;;;22.88;47.59;101474.31;4921274;29;4531;-74
2022/07/28 01:47:54;;;;;;;;;;;;;;;22.85;47.82;101485.03;4900885;29;4295;-74
2022/07/28 01:50:21;;;;;;;;;;;;;;;22.83;47.35;101487.81;4917639;29;5246;-74
2022/07/28 01:52:48;;;;;;;;;;;;;;;22.84;47.54;101482.78;4905258;29;4288;-74
2022/07/28 01:55:16;;;;;;;;;;;;;;;22.84;47.50;101477.00;4899911;29;5313;-73
2022/07/28 01:57:42;;;;;;;;;;;;;;;22.83;47.85;101473.38;4918999;29;4237;-74
2022/07/28 02:00:09;;;;;;;;;;;;;;;22.82;47.89;101469.03;4919606;29;4246;-74
2022/07/28 02:02:39;;;;;;;;;;;;;;;22.84;47.67;101474.91;4920241;29;4164;-74
2022/07/28 02:05:06;;;;;;;;;;;;;;;22.84;47.36;101465.47;4898317;29;4120;-74
2022/07/28 02:07:33;;;;;;;;;;;;;;;22.84;47.59;101468.34;4917911;29;4023;-73
2022/07/28 02:09:59;;;;;;;;;;;;;;;22.83;47.57;101469.75;4917387;29;5453;-73
2022/07/28 02:12:26;;;;;;;;;;;;;;;22.83;47.69;101470.50;4919320;29;6969;-74
2022/07/28 02:14:52;;;;;;;;;;;;;;;22.83;47.36;101464.72;4920052;29;4084;-73
2022/07/28 02:17:19;;;;;;;;;;;;;;;22.81;47.60;101467.50;4914644;29;4400;-74
2022/07/28 02:19:47;;;;;;;;;;;;;;;22.83;47.15;101467.63;4907439;29;4144;-75
2022/07/28 02:22:13;;;;;;;;;;;;;;;22.83;47.61;101464.72;4900453;29;4274;-74
2022/07/28 02:24:39;;;;;;;;;;;;;;;22.83;47.77;101461.84;4919248;29;4246;-75
2022/07/28 02:27:10;;;;;;;;;;;;;;;22.82;47.56;101462.50;4916885;29;4275;-73
2022/07/28 02:29:41;;;;;;;;;;;;;;;22.81;47.81;101467.50;4900303;29;4158;-74
2022/07/28 02:32:19;;;;;;;;;;;;;;;22.80;47.39;101466.78;4901161;29;5670;-74
2022/07/28 02:34:54;;;;;;;;;;;;;;;22.80;47.38;101471.81;4920184;29;4264;-75
2022/07/28 02:37:21;;;;;;;;;;;;;;;22.79;46.77;101464.53;4916779;29;5754;-74
2022/07/28 02:39:49;;;;;;;;;;;;;;;22.78;46.54;101468.84;4897569;29;4543;-75
2022/07/28 02:42:25;;;;;;;;;;;;;;;22.77;46.19;101473.13;4902534;29;4279;-74
2022/07/28 02:44:56;;;;;;;;;;;;;;;22.77;46.20;101470.97;4915920;29;5376;-75
2022/07/28 02:47:23;;;;;;;;;;;;;;;22.77;45.98;101473.88;4902292;29;4402;-75
2022/07/28 02:49:49;;;;;;;;;;;;;;;22.75;45.50;101470.13;4909346;29;4139;-75
2022/07/28 02:52:16;;;;;;;;;;;;;;;22.77;45.60;101478.91;4906162;29;4205;-74
2022/07/28 02:54:42;;;;;;;;;;;;;;;22.76;45.41;101480.28;4904051;29;4268;-75
2022/07/28 02:57:08;;;;;;;;;;;;;;;22.76;45.36;101478.13;4915878;29;4540;-74
2022/07/28 02:59:36;;;;;;;;;;;;;;;22.76;45.08;101486.06;4904375;29;5524;-74
2022/07/28 03:02:02;;;;;;;;;;;;;;;22.75;44.81;101493.25;4900199;29;4619;-75
2022/07/28 03:07:14;;;;;;;;;;;;;;;22.73;44.66;101485.22;4904532;29;4255;-75
2022/07/28 03:09:41;;;;;;;;;;;;;;;22.73;44.19;101491.00;4907689;29;4276;-75
2022/07/28 03:12:10;;;;;;;;;;;;;;;22.73;44.59;101484.47;4922419;29;5803;-74
2022/07/28 03:14:36;;;;;;;;;;;;;;;22.72;44.14;101482.97;4923691;29;4259;-75
2022/07/28 03:17:03;;;;;;;;;;;;;;;22.71;44.17;101488.00;4921898;29;4260;-75
2022/07/28 03:19:29;;;;;;;;;;;;;;;22.71;44.36;101493.03;4918986;29;4338;-75
2022/07/28 03:21:56;;;;;;;;;;;;;;;22.69;43.92;101487.91;4923788;29;4139;-76
2022/07/28 03:24:23;;;;;;;;;;;;;;;22.69;44.06;101495.84;4924026;29;4066;-75
2022/07/28 03:26:56;;;;;;;;;;;;;;;22.69;43.88;101501.59;4906148;29;4161;-74
2022/07/28 03:29:22;;;;;;;;;;;;;;;22.68;43.73;101509.53;4923058;29;4209;-75
2022/07/28 03:31:49;;;;;;;;;;;;;;;22.68;43.94;101508.78;4905131;29;5424;-74
2022/07/28 03:34:15;;;;;;;;;;;;;;;22.67;43.59;101515.94;4923037;29;4406;-74
2022/07/28 03:36:43;;;;;;;;;;;;;;;22.64;43.39;101514.38;4923092;29;4248;-74
2022/07/28 03:39:10;;;;;;;;;;;;;;;22.65;43.42;101515.84;4922101;29;4152;-74
2022/07/28 03:41:37;;;;;;;;;;;;;;;22.65;43.42;101515.84;4901320;29;4341;-74
2022/07/28 03:44:03;;;;;;;;;;;;;;;22.64;43.25;101515.09;4913455;29;4289;-74
2022/07/28 03:46:30;;;;;;;;;;;;;;;22.63;43.32;101510.75;4922626;29;3994;-74
2022/07/28 03:48:56;;;;;;;;;;;;;;;22.63;43.35;101512.84;4922422;29;4413;-75
2022/07/28 03:51:24;;;;;;;;;;;;;;;22.63;43.28;101515.75;4919066;29;4222;-74
2022/07/28 03:53:50;;;;;;;;;;;;;;;22.62;43.04;101514.28;4921437;29;4109;-75
2022/07/28 03:56:17;;;;;;;;;;;;;;;22.62;43.19;101514.28;4920728;29;4178;-74
2022/07/28 03:58:43;;;;;;;;;;;;;;;22.63;43.18;101521.53;4919161;29;4113;-75
2022/07/28 04:01:09;;;;;;;;;;;;;;;22.61;43.06;101527.97;4920111;29;4463;-74
2022/07/28 04:03:36;;;;;;;;;;;;;;;22.59;42.82;101522.81;4921440;29;4086;-75
2022/07/28 04:06:12;;;;;;;;;;;;;;;22.58;42.92;101532.88;4915771;29;4254;-75
2022/07/28 04:08:38;;;;;;;;;;;;;;;22.57;42.76;101537.16;4920968;29;4316;-75
2022/07/28 04:11:05;;;;;;;;;;;;;;;22.58;42.84;101540.78;4918701;29;4389;-74
2022/07/28 04:13:31;;;;;;;;;;;;;;;22.57;43.09;101542.94;4920893;29;4714;-75
2022/07/28 04:15:58;;;;;;;;;;;;;;;22.57;42.74;101537.16;4920728;29;4230;-75
2022/07/28 04:18:24;;;;;;;;;;;;;;;22.56;43.13;101527.03;4917935;29;4204;-75
2022/07/28 04:20:51;;;;;;;;;;;;;;;22.56;42.77;101529.91;4918949;29;4206;-75
2022/07/28 04:23:19;;;;;;;;;;;;;;;22.56;43.09;101532.78;4918423;29;4542;-75
2022/07/28 04:25:45;;;;;;;;;;;;;;;22.55;42.69;101534.16;4920247;29;5832;-74
2022/07/28 04:28:12;;;;;;;;;;;;;;;22.54;42.74;101532.69;4920877;29;5245;-74
2022/07/28 04:30:38;;;;;;;;;;;;;;;22.54;42.54;101526.16;4920676;29;4084;-74
2022/07/28 04:33:10;;;;;;;;;;;;;;;22.55;42.90;101533.44;4917400;29;4281;-74
2022/07/28 04:35:36;;;;;;;;;;;;;;;22.54;43.02;101538.47;4916155;29;4161;-74
2022/07/28 04:38:03;;;;;;;;;;;;;;;22.55;42.70;101539.94;4919710;29;4359;-74
2022/07/28 04:40:29;;;;;;;;;;;;;;;22.54;42.71;101534.81;4922082;29;4197;-74
2022/07/28 04:42:55;;;;;;;;;;;;;;;22.52;42.75;101541.25;4919436;29;4290;-74
2022/07/28 04:45:22;;;;;;;;;;;;;;;22.52;42.77;101535.47;4919651;29;5333;-74
2022/07/28 04:47:48;;;;;;;;;;;;;;;22.54;43.12;101546.34;4919209;29;4226;-75
2022/07/28 04:50:17;;;;;;;;;;;;;;;22.54;42.86;101549.25;4919450;29;4418;-75
2022/07/28 04:52:47;;;;;;;;;;;;;;;22.53;42.97;101550.66;4919543;29;4457;-74
2022/07/28 04:55:13;;;;;;;;;;;;;;;22.52;43.01;101554.94;4918877;29;5480;-74
2022/07/28 04:57:39;;;;;;;;;;;;;;;22.52;43.14;101547.03;4921251;29;4254;-74
2022/07/28 05:00:11;;;;;;;;;;;;;;;22.52;43.17;101546.28;4917614;29;4188;-73
2022/07/28 05:02:41;;;;;;;;;;;;;;;22.51;42.93;101542.63;4917791;29;4302;-74
2022/07/28 05:05:08;;;;;;;;;;;;;;;22.52;43.51;101543.41;4915698;29;4261;-69
2022/07/28 05:07:35;;;;;;;;;;;;;;;22.03;43.12;101547.47;4916238;29;4504;-64
2022/07/28 05:10:02;;;;;;;;;;;;;;;21.40;43.51;101553.63;4915229;29;4558;-69
2022/07/28 05:12:28;;;;;;;;;;;;;;;21.12;44.18;101547.06;4909546;29;4288;-70
2022/07/28 05:14:54;;;;;;;;;;;;;;;21.14;44.08;101552.91;4917115;29;4298;-70
2022/07/28 05:17:21;;;;;;;;;;;;;;;21.00;44.41;101557.91;4913214;29;4237;-71
2022/07/28 05:19:47;;;;;;;;;;;;;;;20.81;44.40;101561.91;4913819;29;4191;-71
2022/07/28 05:22:14;;;;;;;;;;;;;;;20.90;44.21;101561.72;4912412;29;4242;-70
2022/07/28 05:24:40;;;;;;;;;;;;;;;20.72;44.59;101560.69;4912210;29;5551;-69
2022/07/28 05:27:06;;;;;;;;;;;;;;;20.59;44.78;101559.28;4920717;29;5288;-69
2022/07/28 05:29:37;;;;;;;;;;;;;;;20.43;45.11;101553.31;4912427;29;4226;-72
2022/07/28 05:32:13;;;;;;;;;;;;;;;20.73;44.81;101562.22;4908653;29;5281;-66
2022/07/28 05:34:42;;;;;;;;;;;;;;;20.62;45.08;101557.25;4915828;29;4234;-68
2022/07/28 05:37:08;;;;;;;;;;;;;;;20.49;45.38;101556.53;4913339;29;5219;-68
2022/07/28 05:39:35;;;;;;;;;;;;;;;20.36;45.69;101560.09;4913314;29;4201;-68
2022/07/28 05:42:01;;;;;;;;;;;;;;;20.23;45.95;101560.78;4911294;29;4652;-68
2022/07/28 05:44:27;;;;;;;;;;;;;;;20.27;46.08;101563.88;4911372;29;5472;-68
2022/07/28 05:46:54;;;;;;;;;;;;;;;20.16;46.22;101558.91;4914181;29;4050;-66
2022/07/28 05:49:22;;;;;;;;;;;;;;;20.30;46.10;101565.50;4913332;29;5285;-65
2022/07/28 05:51:49;;;;;;;;;;;;;;;20.34;46.01;101574.38;4914546;29;4093;-69
2022/07/28 05:54:15;;;;;;;;;;;;;;;20.40;46.26;101577.56;4917213;29;4230;-65
2022/07/28 05:56:42;;;;;;;;;;;;;;;20.42;46.12;101580.56;4916581;29;4190;-65
2022/07/28 05:59:15;;;;;;;;;;;;;;;20.26;46.32;101576.75;4913209;29;4168;-67
2022/07/28 06:01:41;;;;;;;;;;;;;;;20.04;46.54;101579.84;4915168;29;4161;-67
2022/07/28 06:04:08;;;;;;;;;;;;;;;20.08;46.57;101577.19;4911953;29;4280;-69
2022/07/28 06:06:53;;;;;;;;;;;;;;;20.01;46.71;101581.06;4912032;29;4487;-65
2022/07/28 06:09:19;;;;;;;;;;;;;;;20.11;46.90;101585.94;4909128;29;4205;-65
2022/07/28 06:11:46;;;;;;;;;;;;;;;20.30;48.31;101579.88;4909908;29;5324;-70
2022/07/28 06:14:12;;;;;;;;;;;;;;;20.47;47.66;101579.44;4913688;29;4113;-69
2022/07/28 06:16:39;;;;;;;;;;;;;;;20.56;47.10;101582.78;4914638;29;4403;-70
2022/07/28 06:19:05;;;;;;;;;;;;;;;20.63;46.88;101582.50;4912341;29;4520;-72
2022/07/28 06:21:32;;;;;;;;;;;;;;;20.58;46.94;101583.66;4915308;29;5197;-73
2022/07/28 06:23:58;;;;;;;;;;;;;;;20.58;46.32;101585.81;4915347;29;4310;-65
2022/07/28 06:26:25;;;;;;;;;;;;;;;20.73;46.26;101585.22;4911703;29;4657;-65
2022/07/28 06:28:51;;;;;;;;;;;;;;;20.65;45.85;101584.75;4919766;29;4219;-66
2022/07/28 06:31:17;;;;;;;;;;;;;;;20.67;45.37;101587.75;4915344;29;4449;-66
2022/07/28 06:33:44;;;;;;;;;;;;;;;20.46;45.72;101580.06;4924412;29;4274;-78
2022/07/28 06:36:10;;;;;;;;;;;;;;;20.75;45.43;101584.59;4923130;29;4270;-77
2022/07/28 06:38:37;;;;;;;;;;;;;;;20.56;45.42;101577.03;4920193;29;4270;-77
2022/07/28 06:41:03;;;;;;;;;;;;;;;20.62;45.64;101581.03;4922709;29;4256;-73
2022/07/28 06:43:29;;;;;;;;;;;;;;;20.88;45.13;101583.88;4921884;29;4267;-74
2022/07/28 06:45:57;;;;;;;;;;;;;;;20.73;44.39;101582.34;4921455;29;5420;-76
2022/07/28 06:48:23;;;;;;;;;;;;;;;20.83;44.53;101576.41;4917296;29;5326;-75
2022/07/28 06:50:57;;;;;;;;;;;;;;;20.90;44.53;101590.50;4921813;29;5478;-76
2022/07/28 06:53:23;;;;;;;;;;;;;;;20.97;45.21;101579.34;4907361;29;5518;-75
2022/07/28 06:55:53;;;;;;;;;;;;;;;20.85;44.79;101580.16;4924805;29;4461;-73
2022/07/28 06:58:19;;;;;;;;;;;;;;;20.97;45.32;101579.34;4920231;29;5280;-74
2022/07/28 07:00:46;;;;;;;;;;;;;;;20.93;44.83;101580.59;4920818;29;5360;-73
2022/07/28 07:03:12;;;;;;;;;;;;;;;20.72;44.75;101586.59;4920210;29;4594;-75
2022/07/28 07:05:38;;;;;;;;;;;;;;;20.57;45.06;101578.53;4922209;29;4257;-72
2022/07/28 07:08:05;;;;;;;;;;;;;;;20.36;45.25;101577.34;4918342;29;4225;-71
2022/07/28 07:10:31;;;;;;;;;;;;;;;20.57;45.28;101578.53;4920194;29;5388;-72
2022/07/28 07:12:58;;;;;;;;;;;;;;;20.67;45.40;101570.50;4920067;29;4225;-71
2022/07/28 07:15:24;;;;;;;;;;;;;;;20.59;45.26;101567.91;4919315;29;5291;-70
2022/07/28 07:17:52;;;;;;;;;;;;;;;20.70;45.21;101575.72;4918235;29;4261;-67
2022/07/28 07:20:19;;;;;;;;;;;;;;;20.92;45.02;101576.22;4918008;29;5170;-67
2022/07/28 07:22:45;;;;;;;;;;;;;;;21.00;44.65;101573.03;4922607;29;4232;-66
2022/07/28 07:25:12;;;;;;;;;;;;;;;21.06;44.83;101575.50;4919844;29;5338;-69
2022/07/28 07:27:39;;;;;;;;;;;;;;;20.84;44.92;101580.78;4912311;29;4255;-68
2022/07/28 07:30:05;;;;;;;;;;;;;;;21.10;44.64;101576.47;4919058;29;4362;-70
2022/07/28 07:32:32;;;;;;;;;;;;;;;20.91;44.81;101568.22;4922510;29;4277;-69
2022/07/28 07:34:58;;;;;;;;;;;;;;;20.89;44.99;101574.63;4921134;29;4324;-70
2022/07/28 07:37:24;;;;;;;;;;;;;;;20.63;45.26;101571.00;4922729;29;5268;-68
2022/07/28 07:39:51;;;;;;;;;;;;;;;20.87;45.08;101571.63;4919767;29;4601;-67
2022/07/28 07:42:17;;;;;;;;;;;;;;;20.41;45.50;101570.47;4920349;29;4306;-66
2022/07/28 07:44:44;;;;;;;;;;;;;;;20.75;45.21;101575.94;4912383;29;4278;-64
2022/07/28 07:47:15;;;;;;;;;;;;;;;20.74;44.68;101580.97;4921094;29;4615;-69
2022/07/28 07:49:42;;;;;;;;;;;;;;;20.57;44.84;101578.53;4920608;29;4319;-65
2022/07/28 07:52:11;;;;;;;;;;;;;;;20.78;44.90;101575.44;4910610;29;4402;-66
2022/07/28 07:54:38;;;;;;;;;;;;;;;21.00;44.93;101578.06;4913531;29;4285;-66
2022/07/28 07:57:04;;;;;;;;;;;;;;;20.99;45.55;101577.31;4916677;29;5449;-66
2022/07/28 07:59:31;;;;;;;;;;;;;;;21.07;45.70;101572.00;4913748;29;4270;-65
2022/07/28 08:01:57;;;;;;;;;;;;;;;20.95;45.52;101576.34;4917819;29;4241;-66
2022/07/28 08:04:23;;;;;;;;;;;;;;;20.69;45.48;101579.25;4913174;29;4258;-67
2022/07/28 08:06:50;;;;;;;;;;;;;;;20.98;45.62;101577.94;4918447;29;4152;-67
2022/07/28 08:09:17;;;;;;;;;;;;;;;20.66;45.37;101568.97;4916218;29;4225;-65
2022/07/28 08:11:43;;;;;;;;;;;;;;;20.70;45.42;101569.22;4909935;29;4367;-66
2022/07/28 08:14:10;;;;;;;;;;;;;;;20.92;45.38;101566.84;4917499;29;4253;-66
2022/07/28 08:16:36;;;;;;;;;;;;;;;21.05;45.39;101571.13;4921687;29;4275;-63
2022/07/28 08:19:03;;;;;;;;;;;;;;;21.14;45.72;101575.94;4913197;29;4384;-62
2022/07/28 08:21:31;;;;;;;;;;;;;;;21.21;45.39;101574.16;4916043;29;4291;-67
2022/07/28 08:23:57;;;;;;;;;;;;;;;21.18;45.59;101570.41;4918333;29;4169;-62
2022/07/28 08:26:24;;;;;;;;;;;;;;;21.21;45.49;101572.03;4915506;29;5608;-63
2022/07/28 08:28:50;;;;;;;;;;;;;;;21.24;45.61;101567.13;4917565;29;4035;-63
2022/07/28 08:31:20;;;;;;;;;;;;;;;21.29;45.98;101568.84;4910155;29;4195;-67
2022/07/28 08:33:47;;;;;;;;;;;;;;;21.56;45.50;101568.13;4911655;29;4470;-65
2022/07/28 08:36:20;;;;;;;;;;;;;;;21.58;45.15;101571.13;4918766;29;5348;-63
2022/07/28 08:38:46;;;;;;;;;;;;;;;21.54;44.89;101571.66;4918065;29;4181;-69
2022/07/28 08:41:15;;;;;;;;;;;;;;;21.54;44.31;101579.56;4917006;29;4309;-71
2022/07/28 08:43:42;;;;;;;;;;;;;;;21.58;44.41;101582.66;4916904;29;4297;-65
2022/07/28 08:46:08;;;;;;;;;;;;;;;21.72;44.20;101577.63;4911776;29;4248;-65
2022/07/28 08:48:36;;;;;;;;;;;;;;;22.11;45.08;101585.38;4918532;29;4301;-66
2022/07/28 08:51:03;;;;;;;;;;;;;;;22.72;43.37;101584.78;4916229;29;4204;-65
2022/07/28 08:53:30;;;;;;;;;;;;;;;22.71;43.15;101573.88;4911947;29;5336;-62
2022/07/28 08:56:10;;;;;;;;;;;;;;;22.75;42.85;101582.75;4920359;29;5408;-64
2022/07/28 08:58:37;;;;;;;;;;;;;;;22.50;42.42;101577.94;4916202;29;4419;-67
2022/07/28 09:01:04;;;;;;;;;;;;;;;22.57;42.76;101577.56;4914907;29;5490;-65
2022/07/28 09:03:30;;;;;;;;;;;;;;;22.71;42.45;101568.84;4919592;29;5493;-65
2022/07/28 09:05:57;;;;;;;;;;;;;;;22.90;41.83;101570.44;4918569;29;4212;-65
2022/07/28 09:08:23;;;;;;;;;;;;;;;22.41;42.58;101576.78;4918541;29;4170;-64
2022/07/28 09:10:49;;;;;;;;;;;;;;;22.54;42.21;101576.00;4918859;29;4192;-68
2022/07/28 09:13:16;;;;;;;;;;;;;;;22.53;42.08;101574.47;4913357;29;4259;-66
2022/07/28 09:15:44;;;;;;;;;;;;;;;22.54;42.16;101564.44;4915621;29;4382;-67
2022/07/28 09:18:12;;;;;;;;;;;;;;;22.59;41.59;101562.50;4913505;29;5333;-67
2022/07/28 09:20:38;;;;;;;;;;;;;;;22.88;41.48;101566.72;4917991;29;4116;-66
2022/07/28 09:23:05;;;;;;;;;;;;;;;23.08;40.83;101561.94;4916780;29;4098;-63
2022/07/28 09:26:04;;;;;;;;;;;;;;;23.06;40.81;101567.63;4916927;29;5298;-63
2022/07/28 09:28:49;;;;;;;;;;;;;;;22.15;41.53;101571.16;4917114;29;4205;-65
2022/07/28 09:31:16;;;;;;;;;;;;;;;22.26;42.03;101572.44;4918185;29;5354;-62
2022/07/28 09:33:55;;;;;;;;;;;;;;;22.31;42.15;101567.59;4917454;29;5499;-63
2022/07/28 09:36:22;;;;;;;;;;;;;;;22.37;42.44;101570.81;4917596;29;4526;-61
2022/07/28 09:38:48;;;;;;;;;;;;;;;22.56;42.37;101566.66;4911944;29;4284;-63
2022/07/28 09:41:17;;;;;;;;;;;;;;;22.56;42.14;101563.78;4914703;29;5307;-65
2022/07/28 09:43:44;;;;;;;;;;;;;;;22.58;41.97;101570.38;4913946;29;4256;-64
2022/07/28 09:46:13;;;;;;;;;;;;;;;22.58;41.89;101566.75;4915410;29;4315;-65
2022/07/28 09:48:48;;;;;;;;;;;;;;;22.41;41.39;101571.00;4915042;29;4321;-66
2022/07/28 09:51:30;;;;;;;;;;;;;;;22.59;41.55;101562.50;4913697;29;5308;-69
2022/07/28 09:54:09;;;;;;;;;;;;;;;22.78;41.65;101561.97;4918709;29;4244;-70
2022/07/28 09:56:36;;;;;;;;;;;;;;;22.99;41.34;101557.91;4922973;29;4195;-69
2022/07/28 09:59:03;;;;;;;;;;;;;;;23.08;40.27;101561.19;4921400;29;4616;-69
2022/07/28 10:01:29;;;;;;;;;;;;;;;23.08;41.42;101572.75;4913702;29;4265;-68
2022/07/28 10:04:02;;;;;;;;;;;;;;;23.12;40.64;101558.50;4904067;29;5339;-69
2022/07/28 10:06:28;;;;;;;;;;;;;;;23.04;40.31;101558.09;4919758;29;4537;-67
2022/07/28 10:08:55;;;;;;;;;;;;;;;22.83;40.72;101557.13;4919296;29;4262;-67
2022/07/28 10:11:23;;;;;;;;;;;;;;;22.90;40.91;101561.06;4919932;29;4184;-66
2022/07/28 10:14:01;;;;;;;;;;;;;;;22.89;41.19;101545.88;4919928;29;4256;-74
2022/07/28 10:16:31;;;;;;;;;;;;;;;22.96;40.23;101546.91;4921833;29;4152;-72
2022/07/28 10:18:58;;;;;;;;;;;;;;;22.94;40.62;101541.78;4916323;29;4139;-70
2022/07/28 10:21:24;;;;;;;;;;;;;;;23.08;41.00;101540.97;4915493;29;4227;-70
2022/07/28 10:23:52;;;;;;;;;;;;;;;23.30;40.89;101544.13;4918168;29;6370;-70
2022/07/28 10:26:19;;;;;;;;;;;;;;;23.08;41.07;101535.19;4921381;29;5233;-63
2022/07/28 10:28:47;;;;;;;;;;;;;;;22.55;41.79;101545.72;4916798;29;4035;-65
2022/07/28 10:31:13;;;;;;;;;;;;;;;22.41;41.77;101550.81;4916954;29;4253;-62
2022/07/28 10:33:42;;;;;;;;;;;;;;;22.28;41.79;101557.38;4920576;29;4292;-63
2022/07/28 10:36:09;;;;;;;;;;;;;;;21.73;41.89;101547.41;4904976;29;4129;-64
2022/07/28 10:38:35;;;;;;;;;;;;;;;21.79;41.98;101546.25;4911542;29;4166;-65
2022/07/28 10:41:02;;;;;;;;;;;;;;;22.06;41.82;101549.06;4914808;29;5208;-67
2022/07/28 10:43:30;;;;;;;;;;;;;;;22.12;42.30;101552.25;4908789;29;4059;-64
2022/07/28 10:45:57;;;;;;;;;;;;;;;22.22;42.23;101546.28;4920627;29;4295;-62
2022/07/28 10:48:35;;;;;;;;;;;;;;;22.15;41.98;101538.66;4909415;29;4374;-62
2022/07/28 10:51:01;;;;;;;;;;;;;;;21.89;41.76;101532.34;4912464;29;4074;-65
2022/07/28 10:53:36;;;;;;;;;;;;;;;21.99;41.84;101538.63;4904440;29;4285;-62
2022/07/28 10:56:06;;;;;;;;;;;;;;;22.13;42.52;101536.44;4901596;29;4663;-62
2022/07/28 10:58:35;;;;;;;;;;;;;;;22.19;42.72;101550.41;4899988;29;5452;-63
2022/07/28 11:01:01;;;;;;;;;;;;;;;22.21;42.73;101539.00;4912813;29;4223;-63
2022/07/28 11:03:58;;;;;;;;;;;;;;;22.18;42.09;101543.16;4896536;29;4462;-63
2022/07/28 11:06:34;;;;;;;;;;;;;;;22.41;41.51;101536.38;4906295;29;5354;-64
2022/07/28 11:09:15;;;;;;;;;;;;;;;23.08;38.61;101535.94;4913613;29;5305;-67
2022/07/28 11:11:42;;;;;;;;;;;;;;;23.41;39.12;101532.38;4918977;29;4292;-67
2022/07/28 11:14:24;;;;;;;;;;;;;;;23.28;39.21;101530.34;4918378;29;5518;-66
2022/07/28 11:16:59;;;;;;;;;;;;;;;23.12;39.55;101523.81;4920786;29;4232;-66
2022/07/28 11:19:46;;;;;;;;;;;;;;;23.20;39.60;101527.84;4916346;29;4526;-67
2022/07/28 11:22:33;;;;;;;;;;;;;;;23.10;39.10;101526.63;4915378;29;5283;-70
2022/07/28 11:25:00;;;;;;;;;;;;;;;23.11;39.92;101522.31;4898537;29;4227;-68
2022/07/28 11:27:49;;;;;;;;;;;;;;;23.12;40.43;101529.59;4918892;29;4271;-68
2022/07/28 11:30:32;;;;;;;;;;;;;;;23.10;41.14;101520.84;4921856;29;4365;-68
2022/07/28 11:32:58;;;;;;;;;;;;;;;22.99;41.30;101517.47;4917349;29;4081;-68
2022/07/28 11:35:25;;;;;;;;;;;;;;;23.04;41.56;101517.66;4919286;29;4242;-69
2022/07/28 11:38:01;;;;;;;;;;;;;;;23.09;41.00;101513.56;4910813;29;4330;-69
2022/07/28 11:40:31;;;;;;;;;;;;;;;23.09;41.20;101519.34;4921812;29;4264;-72
2022/07/28 11:43:16;;;;;;;;;;;;;;;23.13;41.03;101507.97;4919176;29;4134;-75
2022/07/28 11:45:47;;;;;;;;;;;;;;;23.07;41.02;101504.81;4920783;29;4287;-80
2022/07/28 11:48:21;;;;;;;;;;;;;;;23.06;41.33;101500.44;4921280;29;4099;-67
2022/07/28 11:51:02;;;;;;;;;;;;;;;23.26;41.08;101501.34;4917581;29;5206;-68
2022/07/28 11:53:33;;;;;;;;;;;;;;;23.50;40.29;101510.38;4919673;29;5269;-68
2022/07/28 11:56:02;;;;;;;;;;;;;;;23.71;40.23;101499.66;4921464;29;4071;-71
2022/07/28 11:58:29;;;;;;;;;;;;;;;23.86;39.67;101506.81;4922037;29;6792;-71
2022/07/28 12:01:11;;;;;;;;;;;;;;;23.89;39.99;101502.59;4922885;29;4185;-70
2022/07/28 12:03:42;;;;;;;;;;;;;;;23.70;40.08;101493.13;4922877;29;4164;-67
2022/07/28 12:06:21;;;;;;;;;;;;;;;23.79;39.75;101495.00;4922264;29;4268;-73
2022/07/28 12:08:58;;;;;;;;;;;;;;;23.68;39.73;101498.09;4905616;29;5593;-74
2022/07/28 12:11:25;;;;;;;;;;;;;;;23.76;39.92;101493.41;4917989;29;4206;-73
2022/07/28 12:13:58;;;;;;;;;;;;;;;23.92;40.00;101495.53;4922176;29;4119;-73
2022/07/28 12:16:25;;;;;;;;;;;;;;;23.79;39.95;101497.88;4928184;29;4059;-71
2022/07/28 12:18:52;;;;;;;;;;;;;;;23.70;39.70;101498.16;4933355;29;4210;-74
2022/07/28 12:21:37;;;;;;;;;;;;;;;23.70;40.14;101487.34;4919039;29;4230;-73
2022/07/28 12:24:17;;;;;;;;;;;;;;;23.74;40.23;101487.56;4922633;29;5384;-70
2022/07/28 12:26:44;;;;;;;;;;;;;;;24.03;40.00;101483.69;4920749;29;4080;-76
2022/07/28 12:29:15;;;;;;;;;;;;;;;24.03;39.97;101483.69;4916859;29;5276;-76
2022/07/28 12:31:54;;;;;;;;;;;;;;;23.86;39.84;101486.56;4920212;29;4199;-72
2022/07/28 12:34:21;;;;;;;;;;;;;;;23.76;39.91;101478.22;4919740;29;5245;-74
2022/07/28 12:36:55;;;;;;;;;;;;;;;23.89;40.23;101488.13;4916989;29;4177;-80
2022/07/28 12:39:24;;;;;;;;;;;;;;;23.78;40.20;101487.72;4922851;29;5239;-70
2022/07/28 12:41:58;;;;;;;;;;;;;;;24.15;39.51;101477.66;4916191;29;5198;-74
2022/07/28 12:44:30;;;;;;;;;;;;;;;23.78;39.25;101481.94;4920364;29;4422;-73
2022/07/28 12:46:57;;;;;;;;;;;;;;;23.66;39.41;101480.66;4916861;29;4088;-69
2022/07/28 12:49:23;;;;;;;;;;;;;;;23.73;39.26;101477.38;4918756;29;4377;-68
2022/07/28 12:51:49;;;;;;;;;;;;;;;23.71;39.12;101471.50;4920036;29;4116;-68
2022/07/28 12:54:16;;;;;;;;;;;;;;;23.72;39.36;101467.19;4919268;29;4160;-69
2022/07/28 12:56:49;;;;;;;;;;;;;;;23.79;39.04;101463.19;4919350;29;4065;-70
2022/07/28 12:59:17;;;;;;;;;;;;;;;23.85;38.88;101467.75;4921684;29;4128;-69